createdAt,value
2024-02-08T00:00:01.641Z,97365.78
2024-02-08T00:02:38.790Z,97366.69
2024-02-08T00:05:11.353Z,97365.22
2024-02-08T00:07:44.119Z,97373.22
2024-02-08T00:10:15.709Z,97374.06
2024-02-08T00:12:47.130Z,97377.25
2024-02-08T00:15:24.342Z,97384.19
2024-02-08T00:17:57.191Z,97381.75
2024-02-08T00:20:28.723Z,97389.41
2024-02-08T00:23:00.319Z,97391.53
2024-02-08T00:25:33.008Z,97394.75
2024-02-08T00:28:04.486Z,97396.59
2024-02-08T00:30:39.657Z,97393.94
2024-02-08T00:33:11.907Z,97393.09
2024-02-08T00:35:46.081Z,97395.09
2024-02-08T00:38:21.196Z,97390.25
2024-02-08T00:41:02.494Z,97390.44
2024-02-08T00:43:34.060Z,97390.19
2024-02-08T00:46:08.647Z,97385.00
2024-02-08T00:48:42.384Z,97387.66
2024-02-08T00:51:18.394Z,97392.75
2024-02-08T00:53:50.135Z,97388.50
2024-02-08T00:56:22.767Z,97390.94
2024-02-08T00:58:59.739Z,97390.19
2024-02-08T01:01:34.637Z,97390.19
2024-02-08T01:04:07.220Z,97396.25
2024-02-08T01:06:45.554Z,97402.44
2024-02-08T01:09:17.133Z,97403.16
2024-02-08T01:11:48.905Z,97393.91
2024-02-08T01:14:22.602Z,97394.69
2024-02-08T01:17:00.211Z,97397.25
2024-02-08T01:19:32.728Z,97393.78
2024-02-08T01:22:04.774Z,97391.25
2024-02-08T01:24:39.665Z,97395.53
2024-02-08T01:27:11.160Z,97400.50
2024-02-08T01:29:44.205Z,97396.25
2024-02-08T01:32:19.418Z,97401.53
2024-02-08T01:34:52.141Z,97402.59
2024-02-08T01:37:27.060Z,97396.59
2024-02-08T01:40:01.455Z,97401.53
2024-02-08T01:42:33.916Z,97392.94
2024-02-08T01:45:34.715Z,97393.59
2024-02-08T01:48:12.316Z,97399.19
2024-02-08T01:50:51.160Z,97403.09
2024-02-08T01:53:29.863Z,97406.69
2024-02-08T01:56:05.320Z,97405.69
2024-02-08T01:58:38.492Z,97406.75
2024-02-08T02:01:25.542Z,97407.53
2024-02-08T02:03:59.949Z,97402.69
2024-02-08T02:06:31.630Z,97395.78
2024-02-08T02:09:03.380Z,97390.44
2024-02-08T02:11:53.228Z,97389.75
2024-02-08T02:14:33.749Z,97393.09
2024-02-08T02:17:17.301Z,97394.97
2024-02-08T02:19:55.498Z,97390.75
2024-02-08T02:22:35.025Z,97398.25
2024-02-08T02:25:09.586Z,97396.59
2024-02-08T02:27:44.205Z,97389.06
2024-02-08T02:30:20.058Z,97393.41
2024-02-08T02:32:52.608Z,97400.09
2024-02-08T02:35:24.348Z,97402.69
2024-02-08T02:38:04.650Z,97410.56
2024-02-08T02:40:41.518Z,97413.22
2024-02-08T02:43:15.425Z,97406.31
2024-02-08T02:45:47.252Z,97409.06
2024-02-08T02:48:22.888Z,97415.75
2024-02-08T02:50:57.176Z,97415.63
2024-02-08T02:53:32.207Z,97429.16
2024-02-08T02:56:03.683Z,97432.56
2024-02-08T02:58:36.924Z,97428.97
2024-02-08T03:01:09.125Z,97433.81
2024-02-08T03:03:42.743Z,97430.66
2024-02-08T03:06:16.695Z,97436.72
2024-02-08T03:08:51.586Z,97433.63
2024-02-08T03:11:23.236Z,97437.81
2024-02-08T03:13:57.231Z,97441.28
2024-02-08T03:16:31.779Z,97437.88
2024-02-08T03:19:03.156Z,97441.97
2024-02-08T03:21:37.423Z,97444.53
2024-02-08T03:24:12.624Z,97446.22
2024-02-08T03:26:51.529Z,97450.38
2024-02-08T03:29:23.503Z,97449.63
2024-02-08T03:31:54.944Z,97445.59
2024-02-08T03:34:32.430Z,97450.78
2024-02-08T03:37:04.616Z,97442.25
2024-02-08T03:39:41.453Z,97448.34
2024-02-08T03:42:13.621Z,97447.44
2024-02-08T03:44:52.673Z,97455.16
2024-02-08T03:47:24.373Z,97445.00
2024-02-08T03:49:55.939Z,97448.34
2024-02-08T03:52:34.107Z,97450.91
2024-02-08T03:55:09.965Z,97442.34
2024-02-08T03:57:41.615Z,97446.81
2024-02-08T04:00:18.883Z,97442.72
2024-02-08T04:02:50.407Z,97439.31
2024-02-08T04:05:38.320Z,97437.66
2024-02-08T04:08:24.196Z,97439.66
2024-02-08T04:11:11.835Z,97449.22
2024-02-08T04:13:55.569Z,97448.22
2024-02-08T04:16:39.230Z,97442.47
2024-02-08T04:19:23.138Z,97452.03
2024-02-08T04:22:06.944Z,97448.53
2024-02-08T04:24:50.530Z,97454.53
2024-02-08T04:27:36.572Z,97451.88
2024-02-08T04:30:22.117Z,97459.69
2024-02-08T04:33:05.488Z,97448.53
2024-02-08T04:35:49.154Z,97456.13
2024-02-08T04:38:32.714Z,97459.53
2024-02-08T04:41:18.678Z,97458.94
2024-02-08T04:44:05.037Z,97460.59
2024-02-08T04:46:48.619Z,97463.41
2024-02-08T04:49:38.399Z,97466.16
2024-02-08T04:52:22.056Z,97465.25
2024-02-08T04:54:53.661Z,97465.25
2024-02-08T04:57:26.735Z,97462.81
2024-02-08T05:00:03.142Z,97458.06
2024-02-08T05:02:36.011Z,97464.72
2024-02-08T05:05:13.657Z,97457.31
2024-02-08T05:08:01.284Z,97469.16
2024-02-08T05:10:40.977Z,97469.16
2024-02-08T05:13:15.086Z,97469.88
2024-02-08T05:15:53.716Z,97465.78
2024-02-08T05:18:33.715Z,97467.31
2024-02-08T05:21:12.379Z,97466.41
2024-02-08T05:23:44.381Z,97475.03
2024-02-08T05:26:27.173Z,97468.06
2024-02-08T05:29:02.372Z,97467.00
2024-02-08T05:31:41.270Z,97467.97
2024-02-08T05:34:19.783Z,97465.56
2024-02-08T05:36:57.435Z,97470.50
2024-02-08T05:39:30.192Z,97473.84
2024-02-08T05:42:07.020Z,97472.06
2024-02-08T05:44:42.688Z,97467.91
2024-02-08T05:47:17.666Z,97474.06
2024-02-08T05:49:54.588Z,97473.91
2024-02-08T05:52:33.311Z,97476.44
2024-02-08T05:55:08.183Z,97475.59
2024-02-08T05:57:48.690Z,97475.41
2024-02-08T06:00:34.113Z,97482.09
2024-02-08T06:03:11.882Z,97484.44
2024-02-08T06:05:52.317Z,97485.13
2024-02-08T06:08:29.571Z,97482.28
2024-02-08T06:11:06.000Z,97489.06
2024-02-08T06:13:45.101Z,97488.72
2024-02-08T06:16:28.351Z,97489.41
2024-02-08T06:19:04.610Z,97486.44
2024-02-08T06:21:47.392Z,97496.69
2024-02-08T06:24:48.754Z,97505.19
2024-02-08T06:27:27.461Z,97505.03
2024-02-08T06:30:02.418Z,97496.06
2024-02-08T06:32:45.812Z,97500.84
2024-02-08T06:35:33.214Z,97495.28
2024-02-08T06:38:07.572Z,97505.47
2024-02-08T06:40:52.770Z,97500.72
2024-02-08T06:43:28.965Z,97502.03
2024-02-08T06:46:20.154Z,97501.72
2024-02-08T06:49:12.134Z,97512.41
2024-02-08T06:51:59.530Z,97505.13
2024-02-08T06:54:43.187Z,97508.97
2024-02-08T06:57:43.232Z,97510.88
2024-02-08T07:00:30.475Z,97506.94
2024-02-08T07:03:14.432Z,97506.53
2024-02-08T07:05:58.303Z,97503.19
2024-02-08T07:08:56.694Z,97506.88
2024-02-08T07:11:40.548Z,97503.78
2024-02-08T07:14:24.173Z,97499.50
2024-02-08T07:17:08.129Z,97494.69
2024-02-08T07:19:52.036Z,97495.63
2024-02-08T07:22:35.911Z,97497.53
2024-02-08T07:25:22.845Z,97497.75
2024-02-08T07:28:06.496Z,97489.41
2024-02-08T07:30:49.980Z,97487.94
2024-02-08T07:33:36.268Z,97499.50
2024-02-08T07:36:23.244Z,97497.28
2024-02-08T07:39:18.422Z,97498.38
2024-02-08T07:41:58.138Z,97489.72
2024-02-08T07:44:36.274Z,97488.34
2024-02-08T07:47:15.099Z,97484.44
2024-02-08T07:49:51.294Z,97489.47
2024-02-08T07:52:26.506Z,97488.03
2024-02-08T07:55:16.493Z,97477.28
2024-02-08T07:57:59.588Z,97487.56
2024-02-08T08:00:44.254Z,97483.94
2024-02-08T08:03:25.691Z,97483.84
2024-02-08T08:06:07.974Z,97478.88
2024-02-08T08:08:40.299Z,97475.53
2024-02-08T08:11:17.455Z,97480.41
2024-02-08T08:14:08.692Z,97475.84
2024-02-08T08:16:37.984Z,97473.63
2024-02-08T08:19:15.044Z,97478.22
2024-02-08T08:22:05.706Z,97474.19
2024-02-08T08:24:55.036Z,97477.44
2024-02-08T08:27:35.176Z,97477.00
2024-02-08T08:30:09.042Z,97473.50
2024-02-08T08:33:12.025Z,97477.78
2024-02-08T08:35:56.199Z,97483.91
2024-02-08T08:38:38.887Z,97487.97
2024-02-08T08:41:17.326Z,97488.69
2024-02-08T08:43:55.222Z,97491.50
2024-02-08T08:46:34.244Z,97488.50
2024-02-08T08:49:08.819Z,97489.63
2024-02-08T08:51:41.139Z,97492.25
2024-02-08T08:54:27.423Z,97479.09
2024-02-08T08:57:13.951Z,97485.19
2024-02-08T08:59:52.430Z,97479.84
2024-02-08T09:02:27.169Z,97482.63
2024-02-08T09:04:58.977Z,97481.13
2024-02-08T09:07:32.118Z,97484.94
2024-02-08T09:10:06.147Z,97485.13
2024-02-08T09:12:41.880Z,97480.94
2024-02-08T09:15:31.061Z,97473.97
2024-02-08T09:18:11.159Z,97471.69
2024-02-08T09:20:53.773Z,97471.69
2024-02-08T09:23:27.945Z,97473.28
2024-02-08T09:26:06.473Z,97476.00
2024-02-08T09:28:45.019Z,97458.72
2024-02-08T09:31:20.612Z,97467.72
2024-02-08T09:34:03.097Z,97472.50
2024-02-08T09:36:36.226Z,97462.75
2024-02-08T09:39:16.612Z,97460.50
2024-02-08T09:41:54.013Z,97453.50
2024-02-08T09:44:30.428Z,97461.00
2024-02-08T09:47:06.188Z,97458.81
2024-02-08T09:49:43.862Z,97452.66
2024-02-08T09:52:33.479Z,97450.78
2024-02-08T09:55:20.408Z,97459.91
2024-02-08T09:57:55.327Z,97458.00
2024-02-08T10:00:56.473Z,97453.03
2024-02-08T10:03:38.168Z,97442.84
2024-02-08T10:06:26.123Z,97448.03
2024-02-08T10:09:10.116Z,97444.13
2024-02-08T10:11:45.641Z,97442.81
2024-02-08T10:14:27.433Z,97439.25
2024-02-08T10:17:01.585Z,97439.72
2024-02-08T10:19:49.839Z,97438.81
2024-02-08T10:22:28.814Z,97433.59
2024-02-08T10:25:19.817Z,97432.41
2024-02-08T10:28:00.063Z,97420.84
2024-02-08T10:30:40.976Z,97418.72
2024-02-08T10:33:26.255Z,97403.31
2024-02-08T10:36:09.058Z,97408.81
2024-02-08T10:38:58.048Z,97399.88
2024-02-08T10:41:43.036Z,97397.16
2024-02-08T10:44:24.445Z,97398.63
2024-02-08T10:47:08.885Z,97396.22
2024-02-08T10:49:52.154Z,97391.00
2024-02-08T10:52:24.682Z,97381.19
2024-02-08T10:55:01.719Z,97383.16
2024-02-08T10:58:05.745Z,97377.56
2024-02-08T11:00:50.302Z,97374.41
2024-02-08T11:03:35.719Z,97370.47
2024-02-08T11:06:30.781Z,97370.72
2024-02-08T11:09:16.486Z,97367.56
2024-02-08T11:12:01.242Z,97369.66
2024-02-08T11:14:44.933Z,97358.28
2024-02-08T11:17:26.702Z,97362.53
2024-02-08T11:20:05.142Z,97354.94
2024-02-08T11:22:42.358Z,97362.78
2024-02-08T11:25:35.401Z,97358.19
2024-02-08T11:28:25.851Z,97353.41
2024-02-08T11:31:00.067Z,97350.81
2024-02-08T11:33:42.272Z,97355.06
2024-02-08T11:36:23.809Z,97360.06
2024-02-08T11:39:00.019Z,97361.34
2024-02-08T11:41:44.444Z,97363.03
2024-02-08T11:44:26.817Z,97353.50
2024-02-08T11:47:04.092Z,97352.97
2024-02-08T11:49:37.680Z,97350.72
2024-02-08T11:52:12.897Z,97345.94
2024-02-08T11:54:45.797Z,97344.22
2024-02-08T11:57:19.804Z,97347.56
2024-02-08T11:59:57.337Z,97344.97
2024-02-08T12:02:33.572Z,97344.44
2024-02-08T12:05:09.174Z,97346.63
2024-02-08T12:07:47.095Z,97336.00
2024-02-08T12:10:19.506Z,97335.44
2024-02-08T12:12:54.846Z,97335.59
2024-02-08T12:15:36.041Z,97336.09
2024-02-08T12:18:10.312Z,97329.19
2024-02-08T12:20:45.494Z,97329.69
2024-02-08T12:23:18.268Z,97333.53
2024-02-08T12:25:51.727Z,97338.56
2024-02-08T12:28:26.700Z,97341.41
2024-02-08T12:31:09.407Z,97337.53
2024-02-08T12:33:47.704Z,97330.28
2024-02-08T12:36:21.543Z,97333.09
2024-02-08T12:38:57.542Z,97341.00
2024-02-08T12:41:30.905Z,97334.75
2024-02-08T12:44:05.265Z,97340.53
2024-02-08T12:46:44.135Z,97335.94
2024-02-08T12:49:20.885Z,97328.13
2024-02-08T12:52:18.812Z,97332.66
2024-02-08T12:55:04.678Z,97329.88
2024-02-08T12:57:38.319Z,97327.16
2024-02-08T13:00:15.285Z,97318.75
2024-02-08T13:02:58.308Z,97322.81
2024-02-08T13:05:50.387Z,97324.00
2024-02-08T13:08:35.183Z,97317.94
2024-02-08T13:11:13.680Z,97314.50
2024-02-08T13:13:47.499Z,97320.56
2024-02-08T13:16:18.817Z,97313.34
2024-02-08T13:19:01.779Z,97316.38
2024-02-08T13:21:35.244Z,97317.47
2024-02-08T13:24:09.060Z,97320.19
2024-02-08T13:26:40.880Z,97318.09
2024-02-08T13:29:15.687Z,97313.09
2024-02-08T13:31:53.333Z,97319.66
2024-02-08T13:34:29.212Z,97316.91
2024-02-08T13:37:03.745Z,97315.63
2024-02-08T13:39:39.253Z,97314.59
2024-02-08T13:42:11.449Z,97310.31
2024-02-08T13:44:45.953Z,97300.72
2024-02-08T13:47:22.379Z,97302.41
2024-02-08T13:50:01.036Z,97298.13
2024-02-08T13:52:33.032Z,97310.22
2024-02-08T13:55:09.256Z,97303.22
2024-02-08T13:57:44.119Z,97309.63
2024-02-08T14:00:22.557Z,97308.56
2024-02-08T14:02:57.442Z,97305.84
2024-02-08T14:05:41.683Z,97305.97
2024-02-08T14:08:19.415Z,97313.06
2024-02-08T14:10:55.697Z,97312.59
2024-02-08T14:13:37.418Z,97314.25
2024-02-08T14:16:17.255Z,97307.53
2024-02-08T14:19:00.500Z,97313.09
2024-02-08T14:21:42.577Z,97317.69
2024-02-08T14:24:17.255Z,97312.13
2024-02-08T14:26:51.149Z,97313.34
2024-02-08T14:29:32.810Z,97309.91
2024-02-08T14:32:17.024Z,97310.84
2024-02-08T14:35:00.932Z,97307.63
2024-02-08T14:37:37.272Z,97312.34
2024-02-08T14:40:15.988Z,97313.16
2024-02-08T14:42:48.544Z,97314.72
2024-02-08T14:45:25.577Z,97313.88
2024-02-08T14:47:57.891Z,97312.56
2024-02-08T14:50:43.762Z,97315.41
2024-02-08T14:53:18.096Z,97316.59
2024-02-08T14:55:54.586Z,97312.19
2024-02-08T14:58:42.530Z,97318.56
2024-02-08T15:01:19.164Z,97319.25
2024-02-08T15:03:52.765Z,97323.97
2024-02-08T15:07:06.363Z,97323.22
2024-02-08T15:09:58.206Z,97321.97
2024-02-08T15:12:43.344Z,97318.91
2024-02-08T15:15:20.660Z,97321.44
2024-02-08T15:17:53.193Z,97320.44
2024-02-08T15:20:46.739Z,97321.25
2024-02-08T15:23:33.942Z,97324.38
2024-02-08T15:26:15.436Z,97326.50
2024-02-08T15:28:44.213Z,97331.47
2024-02-08T15:31:41.306Z,97337.75
2024-02-08T15:34:21.412Z,97340.81
2024-02-08T15:37:22.057Z,97340.81
2024-02-08T15:40:11.776Z,97340.41
2024-02-08T15:42:50.673Z,97349.97
2024-02-08T15:45:23.421Z,97350.28
2024-02-08T15:48:09.003Z,97344.50
2024-02-08T15:50:44.654Z,97344.78
2024-02-08T15:53:25.420Z,97344.28
2024-02-08T15:55:59.136Z,97358.56
2024-02-08T15:58:46.756Z,97356.69
2024-02-08T16:01:19.842Z,97360.59
2024-02-08T16:03:58.511Z,97368.59
2024-02-08T16:06:55.992Z,97360.91
2024-02-08T16:09:34.677Z,97369.00
2024-02-08T16:12:25.338Z,97364.84
2024-02-08T16:15:06.994Z,97373.28
2024-02-08T16:17:59.916Z,97372.66
2024-02-08T16:20:40.311Z,97380.88
2024-02-08T16:23:17.806Z,97371.53
2024-02-08T16:26:07.877Z,97370.88
2024-02-08T16:28:47.307Z,97373.69
2024-02-08T16:31:33.371Z,97372.03
2024-02-08T16:34:09.967Z,97374.25
2024-02-08T16:36:51.421Z,97381.94
2024-02-08T16:39:56.446Z,97380.28
2024-02-08T16:42:37.731Z,97384.00
2024-02-08T16:45:27.802Z,97391.66
2024-02-08T16:48:10.238Z,97390.81
2024-02-08T16:50:50.848Z,97398.72
2024-02-08T16:53:28.391Z,97401.19
2024-02-08T16:56:04.986Z,97402.84
2024-02-08T16:58:45.471Z,97408.25
2024-02-08T17:01:24.151Z,97406.50
2024-02-08T17:04:18.599Z,97405.53
2024-02-08T17:07:04.936Z,97409.72
2024-02-08T17:09:45.409Z,97414.06
2024-02-08T17:12:28.990Z,97414.75
2024-02-08T17:15:20.302Z,97402.72
2024-02-08T17:17:51.843Z,97406.22
2024-02-08T17:20:39.376Z,97403.56
2024-02-08T17:23:18.342Z,97394.19
2024-02-08T17:25:57.459Z,97397.91
2024-02-08T17:28:38.129Z,97403.09
2024-02-08T17:31:23.584Z,97406.22
2024-02-08T17:33:58.529Z,97402.00
2024-02-08T17:36:34.698Z,97404.47
2024-02-08T17:39:07.912Z,97399.09
2024-02-08T17:41:39.682Z,97398.88
2024-02-08T17:44:10.845Z,97402.31
2024-02-08T17:46:43.439Z,97402.31
2024-02-08T17:49:21.709Z,97408.31
2024-02-08T17:51:58.274Z,97407.50
2024-02-08T17:54:33.640Z,97414.53
2024-02-08T17:57:13.563Z,97421.56
2024-02-08T17:59:45.263Z,97424.06
2024-02-08T18:02:23.164Z,97418.88
2024-02-08T18:05:02.921Z,97421.56
2024-02-08T18:07:39.396Z,97419.88
2024-02-08T18:10:20.924Z,97418.88
2024-02-08T18:13:15.492Z,97415.44
2024-02-08T18:15:52.582Z,97415.44
2024-02-08T18:18:27.840Z,97421.56
2024-02-08T18:21:00.451Z,97419.88
2024-02-08T18:23:34.791Z,97413.22
2024-02-08T18:26:12.784Z,97419.44
2024-02-08T18:28:46.393Z,97419.59
2024-02-08T18:31:22.488Z,97426.53
2024-02-08T18:33:58.862Z,97414.13
2024-02-08T18:36:31.893Z,97421.63
2024-02-08T18:39:27.308Z,97420.88
2024-02-08T18:42:02.325Z,97416.63
2024-02-08T18:44:37.164Z,97417.44
2024-02-08T18:47:12.083Z,97417.53
2024-02-08T18:49:45.147Z,97424.66
2024-02-08T18:52:20.115Z,97422.72
2024-02-08T18:54:57.025Z,97411.63
2024-02-08T18:57:30.517Z,97421.34
2024-02-08T19:00:05.648Z,97419.47
2024-02-08T19:02:42.631Z,97423.81
2024-02-08T19:05:18.446Z,97424.56
2024-02-08T19:07:56.954Z,97418.63
2024-02-08T19:10:32.569Z,97430.75
2024-02-08T19:13:11.261Z,97425.50
2024-02-08T19:15:43.164Z,97424.84
2024-02-08T19:18:16.699Z,97420.69
2024-02-08T19:20:50.410Z,97424.91
2024-02-08T19:23:22.393Z,97433.63
2024-02-08T19:26:00.642Z,97443.28
2024-02-08T19:28:38.113Z,97431.19
2024-02-08T19:31:11.725Z,97428.88
2024-02-08T19:33:49.548Z,97439.59
2024-02-08T19:36:26.624Z,97437.78
2024-02-08T19:39:24.238Z,97438.69
2024-02-08T19:42:01.623Z,97435.28
2024-02-08T19:44:36.814Z,97434.44
2024-02-08T19:47:15.842Z,97423.34
2024-02-08T19:49:48.467Z,97429.44
2024-02-08T19:52:25.833Z,97431.94
2024-02-08T19:54:58.738Z,97426.94
2024-02-08T19:57:34.746Z,97431.56
2024-02-08T20:00:07.079Z,97425.81
2024-02-08T20:02:41.394Z,97433.75
2024-02-08T20:05:13.951Z,97439.94
2024-02-08T20:07:45.800Z,97442.44
2024-02-08T20:10:21.078Z,97450.53
2024-02-08T20:13:16.278Z,97434.94
2024-02-08T20:15:49.586Z,97435.03
2024-02-08T20:18:22.678Z,97441.28
2024-02-08T20:20:59.956Z,97446.66
2024-02-08T20:23:33.978Z,97448.47
2024-02-08T20:26:10.123Z,97445.69
2024-02-08T20:28:45.648Z,97444.09
2024-02-08T20:31:29.648Z,97441.38
2024-02-08T20:34:10.415Z,97442.75
2024-02-08T20:36:42.046Z,97447.03
2024-02-08T20:39:24.005Z,97447.19
2024-02-08T20:41:55.578Z,97448.34
2024-02-08T20:44:32.999Z,97442.78
2024-02-08T20:47:10.501Z,97448.69
2024-02-08T20:49:44.031Z,97446.28
2024-02-08T20:52:15.909Z,97445.69
2024-02-08T20:54:50.640Z,97438.69
2024-02-08T20:57:24.968Z,97439.69
2024-02-08T21:00:02.359Z,97441.53
2024-02-08T21:02:36.802Z,97440.94
2024-02-08T21:05:12.086Z,97434.94
2024-02-08T21:07:48.700Z,97440.75
2024-02-08T21:10:27.107Z,97441.59
2024-02-08T21:13:10.098Z,97444.19
2024-02-08T21:15:45.925Z,97431.19
2024-02-08T21:18:20.454Z,97438.03
2024-02-08T21:20:54.520Z,97431.09
2024-02-08T21:23:26.303Z,97429.44
2024-02-08T21:25:57.665Z,97431.09
2024-02-08T21:28:31.160Z,97434.63
2024-02-08T21:31:09.340Z,97435.53
2024-02-08T21:33:41.167Z,97433.00
2024-02-08T21:36:22.631Z,97438.19
2024-02-08T21:38:54.448Z,97439.19
2024-02-08T21:41:32.479Z,97436.59
2024-02-08T21:44:08.424Z,97437.34
2024-02-08T21:46:51.594Z,97447.78
2024-02-08T21:49:28.311Z,97452.19
2024-02-08T21:52:00.982Z,97446.28
2024-02-08T21:54:32.845Z,97448.69
2024-02-08T21:57:08.907Z,97454.84
2024-02-08T21:59:50.616Z,97444.50
2024-02-08T22:02:30.233Z,97444.50
2024-02-08T22:05:02.999Z,97432.34
2024-02-08T22:07:36.487Z,97434.09
2024-02-08T22:10:15.256Z,97429.59
2024-02-08T22:12:51.200Z,97429.69
2024-02-08T22:15:23.561Z,97434.94
2024-02-08T22:18:00.339Z,97432.59
2024-02-08T22:20:32.443Z,97432.41
2024-02-08T22:23:10.533Z,97433.81
2024-02-08T22:25:43.116Z,97434.56
2024-02-08T22:28:18.974Z,97436.31
2024-02-08T22:30:56.647Z,97438.06
2024-02-08T22:33:30.827Z,97437.31
2024-02-08T22:36:02.077Z,97439.91
2024-02-08T22:38:34.620Z,97436.56
2024-02-08T22:41:14.356Z,97426.97
2024-02-08T22:43:45.817Z,97426.97
2024-02-08T22:46:16.992Z,97420.06
2024-02-08T22:48:55.300Z,97425.25
2024-02-08T22:51:26.919Z,97426.16
2024-02-08T22:53:58.836Z,97417.50
2024-02-08T22:56:33.284Z,97408.91
2024-02-08T22:59:08.161Z,97405.66
2024-02-08T23:01:44.799Z,97408.25
2024-02-08T23:04:22.421Z,97395.31
2024-02-08T23:06:54.055Z,97394.56
2024-02-08T23:09:29.006Z,97409.41
2024-02-08T23:12:01.670Z,97390.66
2024-02-08T23:14:34.814Z,97393.31
2024-02-08T23:17:10.675Z,97402.78
2024-02-08T23:20:00.139Z,97401.06
2024-02-08T23:22:31.789Z,97395.88
2024-02-08T23:25:03.834Z,97385.56
2024-02-08T23:27:38.203Z,97389.16
2024-02-08T23:30:10.958Z,97384.91
2024-02-08T23:32:47.239Z,97393.56
2024-02-08T23:35:26.019Z,97392.81
2024-02-08T23:38:01.341Z,97393.63
2024-02-08T23:40:36.296Z,97391.03
2024-02-08T23:43:16.215Z,97381.53
2024-02-08T23:45:50.749Z,97373.06
2024-02-08T23:48:22.811Z,97387.78
2024-02-08T23:51:00.558Z,97380.72
2024-02-08T23:53:33.182Z,97381.66
2024-02-08T23:56:13.797Z,97379.97
2024-02-08T23:58:45.233Z,97379.22
